sensor_id;sensor_type;location;lat;lon;timestamp;pressure;altitude;pressure_sealevel;temperature;humidity
54262;BME280;40174;52.364;6.452;2023-05-25T00:00:11;102361.91;;;8.47;100.00
54262;BME280;40174;52.364;6.452;2023-05-25T00:02:40;102362.13;;;8.42;100.00
54262;BME280;40174;52.364;6.452;2023-05-25T00:05:07;102368.38;;;8.40;100.00
54262;BME280;40174;52.364;6.452;2023-05-25T00:07:35;102370.22;;;8.38;100.00
54262;BME280;40174;52.364;6.452;2023-05-25T00:10:04;102373.84;;;8.35;100.00
54262;BME280;40174;52.364;6.452;2023-05-25T00:12:31;102377.44;;;8.34;100.00
54262;BME280;40174;52.364;6.452;2023-05-25T00:14:57;102370.44;;;8.33;100.00
54262;BME280;40174;52.364;6.452;2023-05-25T00:17:24;102368.84;;;8.29;100.00
54262;BME280;40174;52.364;6.452;2023-05-25T00:19:56;102363.81;;;8.24;100.00
54262;BME280;40174;52.364;6.452;2023-05-25T00:22:26;102360.53;;;8.19;100.00
54262;BME280;40174;52.364;6.452;2023-05-25T00:24:53;102366.00;;;8.15;100.00
54262;BME280;40174;52.364;6.452;2023-05-25T00:27:21;102356.59;;;8.09;100.00
54262;BME280;40174;52.364;6.452;2023-05-25T00:29:48;102367.22;;;8.07;100.00
54262;BME280;40174;52.364;6.452;2023-05-25T00:32:15;102369.13;;;8.04;100.00
54262;BME280;40174;52.364;6.452;2023-05-25T00:34:42;102363.28;;;7.97;100.00
54262;BME280;40174;52.364;6.452;2023-05-25T00:37:09;102374.59;;;7.99;100.00
54262;BME280;40174;52.364;6.452;2023-05-25T00:39:35;102372.19;;;7.95;100.00
54262;BME280;40174;52.364;6.452;2023-05-25T00:42:02;102371.59;;;7.88;100.00
54262;BME280;40174;52.364;6.452;2023-05-25T00:44:32;102375.16;;;7.87;100.00
54262;BME280;40174;52.364;6.452;2023-05-25T00:46:59;102372.53;;;7.87;100.00
54262;BME280;40174;52.364;6.452;2023-05-25T00:49:27;102367.44;;;7.82;100.00
54262;BME280;40174;52.364;6.452;2023-05-25T00:51:56;102370.16;;;7.81;100.00
54262;BME280;40174;52.364;6.452;2023-05-25T00:54:23;102369.38;;;7.79;100.00
54262;BME280;40174;52.364;6.452;2023-05-25T00:56:51;102379.25;;;7.74;100.00
54262;BME280;40174;52.364;6.452;2023-05-25T00:59:23;102395.25;;;7.69;100.00
54262;BME280;40174;52.364;6.452;2023-05-25T01:01:54;102381.31;;;7.67;100.00
54262;BME280;40174;52.364;6.452;2023-05-25T01:04:23;102379.72;;;7.63;100.00
54262;BME280;40174;52.364;6.452;2023-05-25T01:06:53;102379.63;;;7.64;100.00
54262;BME280;40174;52.364;6.452;2023-05-25T01:09:23;102381.63;;;7.59;100.00
54262;BME280;40174;52.364;6.452;2023-05-25T01:11:54;102385.19;;;7.58;100.00
54262;BME280;40174;52.364;6.452;2023-05-25T01:14:21;102387.81;;;7.58;100.00
54262;BME280;40174;52.364;6.452;2023-05-25T01:16:50;102390.56;;;7.55;100.00
54262;BME280;40174;52.364;6.452;2023-05-25T01:19:18;102389.91;;;7.50;100.00
54262;BME280;40174;52.364;6.452;2023-05-25T01:21:50;102390.94;;;7.46;100.00
54262;BME280;40174;52.364;6.452;2023-05-25T01:24:23;102392.88;;;7.42;100.00
54262;BME280;40174;52.364;6.452;2023-05-25T01:27:01;102397.44;;;7.37;100.00
54262;BME280;40174;52.364;6.452;2023-05-25T01:29:31;102394.81;;;7.37;100.00
54262;BME280;40174;52.364;6.452;2023-05-25T01:31:58;102387.06;;;7.34;100.00
54262;BME280;40174;52.364;6.452;2023-05-25T01:34:26;102384.44;;;7.34;100.00
54262;BME280;40174;52.364;6.452;2023-05-25T01:36:55;102379.13;;;7.36;100.00
54262;BME280;40174;52.364;6.452;2023-05-25T01:39:22;102388.00;;;7.33;100.00
54262;BME280;40174;52.364;6.452;2023-05-25T01:41:48;102385.47;;;7.30;100.00
54262;BME280;40174;52.364;6.452;2023-05-25T01:44:15;102380.28;;;7.28;100.00
54262;BME280;40174;52.364;6.452;2023-05-25T01:46:41;102387.31;;;7.28;100.00
54262;BME280;40174;52.364;6.452;2023-05-25T01:49:15;102387.44;;;7.25;100.00
54262;BME280;40174;52.364;6.452;2023-05-25T01:51:52;102386.72;;;7.21;100.00
54262;BME280;40174;52.364;6.452;2023-05-25T01:54:29;102389.34;;;7.21;100.00
54262;BME280;40174;52.364;6.452;2023-05-25T01:56:58;102396.44;;;7.19;100.00
54262;BME280;40174;52.364;6.452;2023-05-25T01:59:27;102387.75;;;7.17;100.00
54262;BME280;40174;52.364;6.452;2023-05-25T02:01:56;102398.34;;;7.16;100.00
54262;BME280;40174;52.364;6.452;2023-05-25T02:04:24;102393.16;;;7.14;100.00
54262;BME280;40174;52.364;6.452;2023-05-25T02:06:53;102395.91;;;7.11;100.00
54262;BME280;40174;52.364;6.452;2023-05-25T02:09:20;102395.97;;;7.10;100.00
54262;BME280;40174;52.364;6.452;2023-05-25T02:11:49;102405.69;;;7.07;100.00
54262;BME280;40174;52.364;6.452;2023-05-25T02:14:15;102405.81;;;7.04;100.00
54262;BME280;40174;52.364;6.452;2023-05-25T02:16:42;102397.94;;;7.04;100.00
54262;BME280;40174;52.364;6.452;2023-05-25T02:19:11;102391.75;;;7.05;100.00
54262;BME280;40174;52.364;6.452;2023-05-25T02:21:39;102401.47;;;7.03;100.00
54262;BME280;40174;52.364;6.452;2023-05-25T02:24:06;102394.56;;;7.01;100.00
54262;BME280;40174;52.364;6.452;2023-05-25T02:26:34;102397.31;;;6.98;100.00
54262;BME280;40174;52.364;6.452;2023-05-25T02:29:03;102398.31;;;6.95;100.00
54262;BME280;40174;52.364;6.452;2023-05-25T02:31:31;102396.53;;;6.96;100.00
54262;BME280;40174;52.364;6.452;2023-05-25T02:33:57;102396.63;;;6.93;100.00
54262;BME280;40174;52.364;6.452;2023-05-25T02:36:25;102403.66;;;6.92;100.00
54262;BME280;40174;52.364;6.452;2023-05-25T02:38:52;102408.88;;;6.94;100.00
54262;BME280;40174;52.364;6.452;2023-05-25T02:41:19;102401.88;;;6.93;100.00
54262;BME280;40174;52.364;6.452;2023-05-25T02:43:46;102404.53;;;6.93;100.00
54262;BME280;40174;52.364;6.452;2023-05-25T02:46:14;102412.53;;;6.90;100.00
54262;BME280;40174;52.364;6.452;2023-05-25T02:48:41;102403.84;;;6.87;100.00
54262;BME280;40174;52.364;6.452;2023-05-25T02:51:08;102417.06;;;6.86;100.00
54262;BME280;40174;52.364;6.452;2023-05-25T02:53:34;102419.81;;;6.83;100.00
54262;BME280;40174;52.364;6.452;2023-05-25T02:56:01;102415.41;;;6.83;100.00
54262;BME280;40174;52.364;6.452;2023-05-25T02:58:31;102416.34;;;6.82;100.00
54262;BME280;40174;52.364;6.452;2023-05-25T03:01:08;102420.78;;;6.80;100.00
54262;BME280;40174;52.364;6.452;2023-05-25T03:03:38;102424.34;;;6.79;100.00
54262;BME280;40174;52.364;6.452;2023-05-25T03:06:06;102416.50;;;6.78;100.00
54262;BME280;40174;52.364;6.452;2023-05-25T03:08:32;102415.72;;;6.76;100.00
54262;BME280;40174;52.364;6.452;2023-05-25T03:10:59;102418.34;;;6.76;100.00
54262;BME280;40174;52.364;6.452;2023-05-25T03:13:26;102407.09;;;6.72;100.00
54262;BME280;40174;52.364;6.452;2023-05-25T03:15:52;102411.44;;;6.73;100.00
54262;BME280;40174;52.364;6.452;2023-05-25T03:18:19;102415.03;;;6.71;100.00
54262;BME280;40174;52.364;6.452;2023-05-25T03:20:47;102411.72;;;6.65;100.00
54262;BME280;40174;52.364;6.452;2023-05-25T03:23:14;102406.47;;;6.65;100.00
54262;BME280;40174;52.364;6.452;2023-05-25T03:25:40;102412.66;;;6.64;100.00
54262;BME280;40174;52.364;6.452;2023-05-25T03:28:07;102419.72;;;6.62;100.00
54262;BME280;40174;52.364;6.452;2023-05-25T03:30:34;102413.63;;;6.62;100.00
54262;BME280;40174;52.364;6.452;2023-05-25T03:33:01;102420.66;;;6.61;100.00
54262;BME280;40174;52.364;6.452;2023-05-25T03:35:33;102422.34;;;6.62;100.00
54262;BME280;40174;52.364;6.452;2023-05-25T03:38:01;102422.34;;;6.62;100.00
54262;BME280;40174;52.364;6.452;2023-05-25T03:40:27;102427.63;;;6.62;100.00
54262;BME280;40174;52.364;6.452;2023-05-25T03:42:54;102429.38;;;6.62;100.00
54262;BME280;40174;52.364;6.452;2023-05-25T03:45:21;102430.19;;;6.64;100.00
54262;BME280;40174;52.364;6.452;2023-05-25T03:47:49;102420.47;;;6.66;100.00
54262;BME280;40174;52.364;6.452;2023-05-25T03:50:15;102424.84;;;6.65;100.00
54262;BME280;40174;52.364;6.452;2023-05-25T03:52:42;102430.00;;;6.69;100.00
54262;BME280;40174;52.364;6.452;2023-05-25T03:55:11;102433.31;;;6.74;100.00
54262;BME280;40174;52.364;6.452;2023-05-25T03:57:39;102434.16;;;6.74;100.00
54262;BME280;40174;52.364;6.452;2023-05-25T04:00:07;102433.19;;;6.77;100.00
54262;BME280;40174;52.364;6.452;2023-05-25T04:02:41;102445.28;;;6.81;100.00
54262;BME280;40174;52.364;6.452;2023-05-25T04:05:08;102445.28;;;6.81;100.00
54262;BME280;40174;52.364;6.452;2023-05-25T04:07:35;102460.03;;;6.85;100.00
54262;BME280;40174;52.364;6.452;2023-05-25T04:10:02;102439.94;;;6.84;100.00
54262;BME280;40174;52.364;6.452;2023-05-25T04:12:30;102449.38;;;6.88;100.00
54262;BME280;40174;52.364;6.452;2023-05-25T04:14:58;102444.22;;;6.86;100.00
54262;BME280;40174;52.364;6.452;2023-05-25T04:17:26;102444.03;;;6.91;100.00
54262;BME280;40174;52.364;6.452;2023-05-25T04:19:52;102435.22;;;6.92;100.00
54262;BME280;40174;52.364;6.452;2023-05-25T04:22:19;102447.38;;;6.95;100.00
54262;BME280;40174;52.364;6.452;2023-05-25T04:24:47;102443.00;;;6.95;100.00
54262;BME280;40174;52.364;6.452;2023-05-25T04:27:15;102443.00;;;6.95;100.00
54262;BME280;40174;52.364;6.452;2023-05-25T04:29:43;102444.69;;;6.96;100.00
54262;BME280;40174;52.364;6.452;2023-05-25T04:32:32;102442.81;;;7.00;100.00
54262;BME280;40174;52.364;6.452;2023-05-25T04:35:20;102441.03;;;7.00;100.00
54262;BME280;40174;52.364;6.452;2023-05-25T04:37:48;102446.13;;;7.05;100.00
54262;BME280;40174;52.364;6.452;2023-05-25T04:40:16;102445.97;;;7.08;100.00
54262;BME280;40174;52.364;6.452;2023-05-25T04:42:42;102443.25;;;7.11;100.00
54262;BME280;40174;52.364;6.452;2023-05-25T04:45:10;102444.88;;;7.14;100.00
54262;BME280;40174;52.364;6.452;2023-05-25T04:47:42;102446.50;;;7.18;100.00
54262;BME280;40174;52.364;6.452;2023-05-25T04:50:10;102450.63;;;7.23;100.00
54262;BME280;40174;52.364;6.452;2023-05-25T04:52:37;102460.06;;;7.29;100.00
54262;BME280;40174;52.364;6.452;2023-05-25T04:55:05;102459.91;;;7.32;100.00
54262;BME280;40174;52.364;6.452;2023-05-25T04:57:34;102466.59;;;7.41;100.00
54262;BME280;40174;52.364;6.452;2023-05-25T05:00:01;102465.59;;;7.43;100.00
54262;BME280;40174;52.364;6.452;2023-05-25T05:02:29;102471.53;;;7.48;100.00
54262;BME280;40174;52.364;6.452;2023-05-25T05:04:57;102467.78;;;7.54;100.00
54262;BME280;40174;52.364;6.452;2023-05-25T05:07:25;102471.28;;;7.55;100.00
54262;BME280;40174;52.364;6.452;2023-05-25T05:09:51;102476.16;;;7.64;100.00
54262;BME280;40174;52.364;6.452;2023-05-25T05:12:18;102476.84;;;7.69;100.00
54262;BME280;40174;52.364;6.452;2023-05-25T05:14:48;102470.59;;;7.72;100.00
54262;BME280;40174;52.364;6.452;2023-05-25T05:17:15;102475.56;;;7.78;100.00
54262;BME280;40174;52.364;6.452;2023-05-25T05:19:44;102475.38;;;7.82;100.00
54262;BME280;40174;52.364;6.452;2023-05-25T05:22:11;102470.06;;;7.84;100.00
54262;BME280;40174;52.364;6.452;2023-05-25T05:24:40;102469.06;;;7.86;100.00
54262;BME280;40174;52.364;6.452;2023-05-25T05:27:08;102481.13;;;7.92;100.00
54262;BME280;40174;52.364;6.452;2023-05-25T05:29:43;102480.19;;;7.93;100.00
54262;BME280;40174;52.364;6.452;2023-05-25T05:32:10;102481.78;;;7.97;100.00
54262;BME280;40174;52.364;6.452;2023-05-25T05:34:37;102498.22;;;8.02;100.00
54262;BME280;40174;52.364;6.452;2023-05-25T05:37:10;102507.50;;;8.11;100.00
54262;BME280;40174;52.364;6.452;2023-05-25T05:39:37;102510.66;;;8.19;100.00
54262;BME280;40174;52.364;6.452;2023-05-25T05:42:04;102516.47;;;8.27;100.00
54262;BME280;40174;52.364;6.452;2023-05-25T05:44:32;102518.56;;;8.40;100.00
54262;BME280;40174;52.364;6.452;2023-05-25T05:46:59;102515.59;;;8.47;100.00
54262;BME280;40174;52.364;6.452;2023-05-25T05:49:26;102514.41;;;8.55;100.00
54262;BME280;40174;52.364;6.452;2023-05-25T05:51:53;102514.06;;;8.62;100.00
54262;BME280;40174;52.364;6.452;2023-05-25T05:54:21;102508.31;;;8.73;100.00
54262;BME280;40174;52.364;6.452;2023-05-25T05:56:48;102514.00;;;8.83;100.00
54262;BME280;40174;52.364;6.452;2023-05-25T05:59:15;102510.81;;;8.95;100.00
54262;BME280;40174;52.364;6.452;2023-05-25T06:01:41;102529.69;;;9.05;100.00
54262;BME280;40174;52.364;6.452;2023-05-25T06:04:08;102530.97;;;9.15;100.00
54262;BME280;40174;52.364;6.452;2023-05-25T06:06:35;102539.31;;;9.25;100.00
54262;BME280;40174;52.364;6.452;2023-05-25T06:09:03;102538.78;;;9.35;100.00
54262;BME280;40174;52.364;6.452;2023-05-25T06:11:32;102542.78;;;9.44;100.00
54262;BME280;40174;52.364;6.452;2023-05-25T06:14:01;102543.19;;;9.54;100.00
54262;BME280;40174;52.364;6.452;2023-05-25T06:16:28;102537.50;;;9.62;100.00
54262;BME280;40174;52.364;6.452;2023-05-25T06:18:56;102545.69;;;9.74;100.00
54262;BME280;40174;52.364;6.452;2023-05-25T06:21:23;102543.38;;;9.86;100.00
54262;BME280;40174;52.364;6.452;2023-05-25T06:23:49;102553.34;;;9.98;100.00
54262;BME280;40174;52.364;6.452;2023-05-25T06:26:17;102554.56;;;10.08;100.00
54262;BME280;40174;52.364;6.452;2023-05-25T06:28:45;102554.09;;;10.17;100.00
54262;BME280;40174;52.364;6.452;2023-05-25T06:31:13;102551.84;;;10.27;100.00
54262;BME280;40174;52.364;6.452;2023-05-25T06:33:40;102553.28;;;10.34;100.00
54262;BME280;40174;52.364;6.452;2023-05-25T06:36:07;102546.72;;;10.42;100.00
54262;BME280;40174;52.364;6.452;2023-05-25T06:38:34;102551.38;;;10.54;100.00
54262;BME280;40174;52.364;6.452;2023-05-25T06:41:00;102557.09;;;10.62;100.00
54262;BME280;40174;52.364;6.452;2023-05-25T06:43:29;102561.81;;;10.73;100.00
54262;BME280;40174;52.364;6.452;2023-05-25T06:46:10;102554.22;;;10.82;100.00
54262;BME280;40174;52.364;6.452;2023-05-25T06:48:42;102558.88;;;10.95;100.00
54262;BME280;40174;52.364;6.452;2023-05-25T06:51:09;102562.72;;;11.05;100.00
54262;BME280;40174;52.364;6.452;2023-05-25T06:53:36;102560.25;;;11.18;100.00
54262;BME280;40174;52.364;6.452;2023-05-25T06:56:03;102554.94;;;11.34;100.00
54262;BME280;40174;52.364;6.452;2023-05-25T06:58:30;102561.53;;;11.42;100.00
54262;BME280;40174;52.364;6.452;2023-05-25T07:00:56;102559.19;;;11.52;100.00
54262;BME280;40174;52.364;6.452;2023-05-25T07:03:25;102561.34;;;11.61;100.00
54262;BME280;40174;52.364;6.452;2023-05-25T07:05:52;102562.25;;;11.76;100.00
54262;BME280;40174;52.364;6.452;2023-05-25T07:08:19;102566.34;;;11.82;100.00
54262;BME280;40174;52.364;6.452;2023-05-25T07:10:45;102564.34;;;11.85;100.00
54262;BME280;40174;52.364;6.452;2023-05-25T07:13:12;102578.97;;;11.93;100.00
54262;BME280;40174;52.364;6.452;2023-05-25T07:15:39;102577.47;;;11.89;100.00
54262;BME280;40174;52.364;6.452;2023-05-25T07:18:06;102584.13;;;11.96;100.00
54262;BME280;40174;52.364;6.452;2023-05-25T07:20:37;102588.47;;;11.97;100.00
54262;BME280;40174;52.364;6.452;2023-05-25T07:23:06;102589.06;;;12.02;100.00
54262;BME280;40174;52.364;6.452;2023-05-25T07:25:34;102597.25;;;12.13;100.00
54262;BME280;40174;52.364;6.452;2023-05-25T07:28:00;102593.56;;;12.30;100.00
54262;BME280;40174;52.364;6.452;2023-05-25T07:30:27;102592.59;;;12.47;100.00
54262;BME280;40174;52.364;6.452;2023-05-25T07:32:53;102587.19;;;12.63;100.00
54262;BME280;40174;52.364;6.452;2023-05-25T07:35:21;102596.75;;;12.80;100.00
54262;BME280;40174;52.364;6.452;2023-05-25T07:37:56;102600.06;;;12.98;100.00
54262;BME280;40174;52.364;6.452;2023-05-25T07:40:23;102599.94;;;13.14;100.00
54262;BME280;40174;52.364;6.452;2023-05-25T07:42:49;102597.97;;;13.31;100.00
54262;BME280;40174;52.364;6.452;2023-05-25T07:45:16;102603.34;;;13.44;100.00
54262;BME280;40174;52.364;6.452;2023-05-25T07:47:42;102603.75;;;13.65;100.00
54262;BME280;40174;52.364;6.452;2023-05-25T07:50:10;102604.56;;;13.80;100.00
54262;BME280;40174;52.364;6.452;2023-05-25T07:52:36;102601.75;;;13.96;100.00
54262;BME280;40174;52.364;6.452;2023-05-25T07:55:05;102606.69;;;14.15;100.00
54262;BME280;40174;52.364;6.452;2023-05-25T07:57:32;102607.53;;;14.16;100.00
54262;BME280;40174;52.364;6.452;2023-05-25T07:59:59;102613.59;;;14.18;100.00
54262;BME280;40174;52.364;6.452;2023-05-25T08:02:26;102617.56;;;14.25;100.00
54262;BME280;40174;52.364;6.452;2023-05-25T08:04:53;102610.84;;;14.32;100.00
54262;BME280;40174;52.364;6.452;2023-05-25T08:07:20;102611.69;;;14.32;100.00
54262;BME280;40174;52.364;6.452;2023-05-25T08:09:49;102616.59;;;14.39;100.00
54262;BME280;40174;52.364;6.452;2023-05-25T08:12:17;102620.53;;;14.46;100.00
54262;BME280;40174;52.364;6.452;2023-05-25T08:14:43;102625.88;;;14.46;100.00
54262;BME280;40174;52.364;6.452;2023-05-25T08:17:10;102629.19;;;14.49;100.00
54262;BME280;40174;52.364;6.452;2023-05-25T08:19:36;102632.81;;;14.48;100.00
54262;BME280;40174;52.364;6.452;2023-05-25T08:22:03;102632.81;;;14.48;100.00
54262;BME280;40174;52.364;6.452;2023-05-25T08:24:30;102629.09;;;14.51;100.00
54262;BME280;40174;52.364;6.452;2023-05-25T08:26:56;102639.22;;;14.59;100.00
54262;BME280;40174;52.364;6.452;2023-05-25T08:29:24;102633.06;;;14.58;100.00
54262;BME280;40174;52.364;6.452;2023-05-25T08:31:51;102640.72;;;14.75;100.00
54262;BME280;40174;52.364;6.452;2023-05-25T08:34:17;102644.88;;;14.92;100.00
54262;BME280;40174;52.364;6.452;2023-05-25T08:36:44;102634.53;;;14.88;100.00
54262;BME280;40174;52.364;6.452;2023-05-25T08:39:11;102638.91;;;14.89;100.00
54262;BME280;40174;52.364;6.452;2023-05-25T08:41:43;102636.78;;;14.94;100.00
54262;BME280;40174;52.364;6.452;2023-05-25T08:44:10;102635.66;;;15.22;100.00
54262;BME280;40174;52.364;6.452;2023-05-25T08:46:40;102650.03;;;15.32;100.00
54262;BME280;40174;52.364;6.452;2023-05-25T08:49:10;102638.00;;;15.76;100.00
54262;BME280;40174;52.364;6.452;2023-05-25T08:51:37;102639.28;;;15.95;94.26
54262;BME280;40174;52.364;6.452;2023-05-25T08:54:06;102648.97;;;16.20;94.01
54262;BME280;40174;52.364;6.452;2023-05-25T08:56:42;102641.69;;;16.22;91.78
54262;BME280;40174;52.364;6.452;2023-05-25T08:59:17;102646.81;;;16.36;88.19
54262;BME280;40174;52.364;6.452;2023-05-25T09:01:52;102646.75;;;16.49;90.97
54262;BME280;40174;52.364;6.452;2023-05-25T09:04:21;102653.28;;;16.45;82.97
54262;BME280;40174;52.364;6.452;2023-05-25T09:06:48;102649.03;;;16.42;85.50
54262;BME280;40174;52.364;6.452;2023-05-25T09:09:15;102651.38;;;16.70;84.99
54262;BME280;40174;52.364;6.452;2023-05-25T09:11:42;102646.09;;;16.81;79.80
54262;BME280;40174;52.364;6.452;2023-05-25T09:14:10;102647.66;;;16.83;81.57
54262;BME280;40174;52.364;6.452;2023-05-25T09:16:36;102643.19;;;16.84;80.08
54262;BME280;40174;52.364;6.452;2023-05-25T09:19:04;102652.53;;;16.90;82.37
54262;BME280;40174;52.364;6.452;2023-05-25T09:21:31;102655.56;;;16.96;80.40
54262;BME280;40174;52.364;6.452;2023-05-25T09:23:58;102654.25;;;17.13;80.60
54262;BME280;40174;52.364;6.452;2023-05-25T09:26:25;102658.59;;;17.25;81.05
54262;BME280;40174;52.364;6.452;2023-05-25T09:28:52;102658.97;;;17.32;74.24
54262;BME280;40174;52.364;6.452;2023-05-25T09:31:22;102660.81;;;17.20;76.23
54262;BME280;40174;52.364;6.452;2023-05-25T09:33:48;102659.34;;;17.16;75.73
54262;BME280;40174;52.364;6.452;2023-05-25T09:36:17;102658.72;;;17.01;77.28
54262;BME280;40174;52.364;6.452;2023-05-25T09:38:46;102663.59;;;17.08;78.57
54262;BME280;40174;52.364;6.452;2023-05-25T09:41:13;102666.50;;;17.04;77.04
54262;BME280;40174;52.364;6.452;2023-05-25T09:43:40;102655.81;;;17.04;78.63
54262;BME280;40174;52.364;6.452;2023-05-25T09:46:07;102656.41;;;16.97;77.06
54262;BME280;40174;52.364;6.452;2023-05-25T09:48:33;102659.97;;;17.09;78.65
54262;BME280;40174;52.364;6.452;2023-05-25T09:51:00;102662.38;;;17.23;77.17
54262;BME280;40174;52.364;6.452;2023-05-25T09:53:28;102675.00;;;17.21;76.99
54262;BME280;40174;52.364;6.452;2023-05-25T09:55:55;102667.34;;;17.16;77.06
54262;BME280;40174;52.364;6.452;2023-05-25T09:58:22;102665.66;;;17.15;77.86
54262;BME280;40174;52.364;6.452;2023-05-25T10:00:51;102674.63;;;17.14;77.75
54262;BME280;40174;52.364;6.452;2023-05-25T10:03:18;102668.34;;;17.15;77.15
54262;BME280;40174;52.364;6.452;2023-05-25T10:05:46;102666.03;;;17.11;78.65
54262;BME280;40174;52.364;6.452;2023-05-25T10:08:14;102674.75;;;17.13;78.97
54262;BME280;40174;52.364;6.452;2023-05-25T10:10:45;102674.88;;;17.45;77.54
54262;BME280;40174;52.364;6.452;2023-05-25T10:13:13;102660.28;;;17.60;75.26
54262;BME280;40174;52.364;6.452;2023-05-25T10:15:42;102667.19;;;17.63;77.48
54262;BME280;40174;52.364;6.452;2023-05-25T10:18:12;102675.09;;;17.64;75.97
54262;BME280;40174;52.364;6.452;2023-05-25T10:20:39;102666.47;;;17.50;74.75
54262;BME280;40174;52.364;6.452;2023-05-25T10:23:09;102674.50;;;17.38;75.44
54262;BME280;40174;52.364;6.452;2023-05-25T10:25:38;102665.66;;;17.38;75.81
54262;BME280;40174;52.364;6.452;2023-05-25T10:28:13;102673.53;;;17.39;75.17
54262;BME280;40174;52.364;6.452;2023-05-25T10:30:42;102676.06;;;17.52;75.64
54262;BME280;40174;52.364;6.452;2023-05-25T10:33:09;102673.75;;;17.59;74.77
54262;BME280;40174;52.364;6.452;2023-05-25T10:35:37;102674.13;;;17.54;73.17
54262;BME280;40174;52.364;6.452;2023-05-25T10:38:05;102677.25;;;17.82;74.22
54262;BME280;40174;52.364;6.452;2023-05-25T10:40:33;102669.72;;;17.87;72.70
54262;BME280;40174;52.364;6.452;2023-05-25T10:43:00;102663.38;;;17.88;71.64
54262;BME280;40174;52.364;6.452;2023-05-25T10:45:28;102663.75;;;17.83;69.62
54262;BME280;40174;52.364;6.452;2023-05-25T10:47:55;102668.50;;;17.69;73.04
54262;BME280;40174;52.364;6.452;2023-05-25T10:50:24;102671.03;;;17.70;69.34
54262;BME280;40174;52.364;6.452;2023-05-25T10:52:59;102662.41;;;17.66;67.00
54262;BME280;40174;52.364;6.452;2023-05-25T10:55:26;102666.44;;;17.72;69.70
54262;BME280;40174;52.364;6.452;2023-05-25T10:58:09;102668.72;;;17.88;69.13
54262;BME280;40174;52.364;6.452;2023-05-25T11:00:38;102672.84;;;17.81;67.27
54262;BME280;40174;52.364;6.452;2023-05-25T11:03:05;102676.38;;;17.93;68.39
54262;BME280;40174;52.364;6.452;2023-05-25T11:05:36;102676.72;;;17.99;67.98
54262;BME280;40174;52.364;6.452;2023-05-25T11:08:05;102674.03;;;17.99;66.93
54262;BME280;40174;52.364;6.452;2023-05-25T11:10:51;102677.00;;;18.17;67.38
54262;BME280;40174;52.364;6.452;2023-05-25T11:13:35;102672.50;;;18.18;65.43
54262;BME280;40174;52.364;6.452;2023-05-25T11:16:14;102669.88;;;18.06;66.44
54262;BME280;40174;52.364;6.452;2023-05-25T11:18:42;102677.16;;;18.04;66.32
54262;BME280;40174;52.364;6.452;2023-05-25T11:21:14;102673.56;;;17.94;65.57
54262;BME280;40174;52.364;6.452;2023-05-25T11:23:55;102664.59;;;17.84;66.49
54262;BME280;40174;52.364;6.452;2023-05-25T11:26:24;102660.34;;;17.81;67.01
54262;BME280;40174;52.364;6.452;2023-05-25T11:28:52;102659.84;;;17.88;67.09
54262;BME280;40174;52.364;6.452;2023-05-25T11:31:21;102658.09;;;17.98;66.79
54262;BME280;40174;52.364;6.452;2023-05-25T11:33:54;102665.50;;;18.05;66.14
54262;BME280;40174;52.364;6.452;2023-05-25T11:36:22;102652.22;;;18.36;65.91
54262;BME280;40174;52.364;6.452;2023-05-25T11:38:50;102654.28;;;18.54;66.17
54262;BME280;40174;52.364;6.452;2023-05-25T11:41:18;102662.59;;;18.51;64.68
54262;BME280;40174;52.364;6.452;2023-05-25T11:43:47;102657.69;;;18.56;63.92
54262;BME280;40174;52.364;6.452;2023-05-25T11:46:14;102665.56;;;18.47;64.22
54262;BME280;40174;52.364;6.452;2023-05-25T11:48:48;102658.13;;;18.61;64.60
54262;BME280;40174;52.364;6.452;2023-05-25T11:51:16;102658.28;;;18.59;62.03
54262;BME280;40174;52.364;6.452;2023-05-25T11:53:43;102663.38;;;18.62;60.96
54262;BME280;40174;52.364;6.452;2023-05-25T11:56:11;102663.66;;;18.59;63.23
54262;BME280;40174;52.364;6.452;2023-05-25T11:58:38;102660.31;;;18.88;63.09
54262;BME280;40174;52.364;6.452;2023-05-25T12:01:15;102649.44;;;18.89;61.48
54262;BME280;40174;52.364;6.452;2023-05-25T12:03:44;102651.00;;;19.23;60.33
54262;BME280;40174;52.364;6.452;2023-05-25T12:06:28;102647.44;;;19.53;56.81
54262;BME280;40174;52.364;6.452;2023-05-25T12:08:55;102651.16;;;20.01;57.28
54262;BME280;40174;52.364;6.452;2023-05-25T12:11:29;102647.78;;;20.18;54.82
54262;BME280;40174;52.364;6.452;2023-05-25T12:13:56;102644.63;;;19.64;55.96
54262;BME280;40174;52.364;6.452;2023-05-25T12:16:24;102640.94;;;19.56;58.47
54262;BME280;40174;52.364;6.452;2023-05-25T12:18:52;102647.56;;;19.61;58.22
54262;BME280;40174;52.364;6.452;2023-05-25T12:21:20;102642.63;;;19.57;57.77
54262;BME280;40174;52.364;6.452;2023-05-25T12:23:47;102641.34;;;19.51;58.07
54262;BME280;40174;52.364;6.452;2023-05-25T12:26:15;102642.34;;;19.60;57.77
54262;BME280;40174;52.364;6.452;2023-05-25T12:28:57;102631.03;;;19.66;56.91
54262;BME280;40174;52.364;6.452;2023-05-25T12:31:25;102631.75;;;19.68;56.05
54262;BME280;40174;52.364;6.452;2023-05-25T12:34:07;102625.44;;;20.08;56.40
54262;BME280;40174;52.364;6.452;2023-05-25T12:36:38;102624.72;;;20.25;55.09
54262;BME280;40174;52.364;6.452;2023-05-25T12:39:05;102620.94;;;20.18;55.05
54262;BME280;40174;52.364;6.452;2023-05-25T12:41:41;102622.34;;;19.83;54.30
54262;BME280;40174;52.364;6.452;2023-05-25T12:44:16;102625.16;;;19.82;54.82
54262;BME280;40174;52.364;6.452;2023-05-25T12:46:42;102634.91;;;19.92;54.39
54262;BME280;40174;52.364;6.452;2023-05-25T12:49:27;102635.06;;;20.20;55.47
54262;BME280;40174;52.364;6.452;2023-05-25T12:51:54;102635.56;;;20.53;53.47
54262;BME280;40174;52.364;6.452;2023-05-25T12:54:38;102635.16;;;20.67;51.87